createdAt,value
2023-04-03T00:02:14.737Z,8.70
2023-04-03T00:04:45.413Z,8.60
2023-04-03T00:07:16.046Z,8.70
2023-04-03T00:09:44.610Z,8.70
2023-04-03T00:12:13.295Z,8.70
2023-04-03T00:14:41.898Z,8.60
2023-04-03T00:17:10.775Z,8.60
2023-04-03T00:19:39.620Z,7.60
2023-04-03T00:22:09.779Z,8.40
2023-04-03T00:24:38.472Z,8.40
2023-04-03T00:27:06.944Z,8.40
2023-04-03T00:29:35.951Z,8.40
2023-04-03T00:32:04.576Z,8.40
2023-04-03T00:34:33.407Z,8.40
2023-04-03T00:37:02.359Z,8.40
2023-04-03T00:39:33.252Z,8.40
2023-04-03T00:42:02.097Z,7.70
2023-04-03T00:45:03.765Z,8.10
2023-04-03T00:47:33.998Z,8.10
2023-04-03T00:50:03.341Z,8.10
2023-04-03T00:52:33.949Z,8.10
2023-04-03T00:55:08.470Z,8.10
2023-04-03T00:57:38.946Z,8.50
2023-04-03T01:00:18.722Z,8.00
2023-04-03T01:02:48.371Z,7.10
2023-04-03T01:05:19.904Z,7.90
2023-04-03T01:07:52.271Z,7.70
2023-04-03T01:10:24.947Z,7.70
2023-04-03T01:12:55.589Z,7.70
2023-04-03T01:15:28.061Z,7.60
2023-04-03T01:17:59.527Z,7.60
2023-04-03T01:21:11.609Z,7.60
2023-04-03T01:23:53.494Z,7.60
2023-04-03T01:26:24.282Z,7.60
2023-04-03T01:28:53.749Z,7.50
2023-04-03T01:31:27.901Z,7.50
2023-04-03T01:33:59.254Z,7.40
2023-04-03T01:36:30.763Z,7.40
2023-04-03T01:39:00.980Z,7.40
2023-04-03T01:41:30.853Z,7.20
2023-04-03T01:44:01.200Z,7.10
2023-04-03T01:46:30.515Z,7.00
2023-04-03T01:49:01.495Z,7.00
2023-04-03T01:51:30.370Z,7.00
2023-04-03T01:53:59.433Z,6.90
2023-04-03T01:56:28.534Z,5.80
2023-04-03T01:58:58.151Z,6.60
2023-04-03T02:01:27.375Z,6.60
2023-04-03T02:03:56.420Z,6.40
2023-04-03T02:06:27.472Z,6.30
2023-04-03T02:08:57.488Z,6.30
2023-04-03T02:11:27.924Z,6.30
2023-04-03T02:13:56.971Z,6.30
2023-04-03T02:16:26.164Z,6.20
2023-04-03T02:18:55.999Z,6.20
2023-04-03T02:21:26.752Z,6.20
2023-04-03T02:23:56.750Z,6.10
2023-04-03T02:26:26.316Z,6.20
2023-04-03T02:28:55.410Z,6.00
2023-04-03T02:31:25.631Z,6.10
2023-04-03T02:33:55.912Z,6.10
2023-04-03T02:36:31.799Z,6.20
2023-04-03T02:39:02.792Z,6.20
2023-04-03T02:41:36.801Z,6.20
2023-04-03T02:44:07.261Z,6.10
2023-04-03T02:46:38.536Z,6.10
2023-04-03T02:49:10.790Z,6.10
2023-04-03T02:51:41.184Z,6.10
2023-04-03T02:54:10.261Z,6.10
2023-04-03T02:56:38.952Z,6.10
2023-04-03T02:59:07.843Z,6.00
2023-04-03T03:01:37.079Z,5.90
2023-04-03T03:04:07.371Z,5.90
2023-04-03T03:06:38.723Z,5.80
2023-04-03T03:09:11.098Z,5.90
2023-04-03T03:11:40.278Z,5.80
2023-04-03T03:14:09.576Z,5.80
2023-04-03T03:16:38.481Z,5.70
2023-04-03T03:19:08.085Z,5.70
2023-04-03T03:21:45.925Z,5.70
2023-04-03T03:24:17.238Z,5.70
2023-04-03T03:26:46.234Z,5.60
2023-04-03T03:29:15.506Z,5.50
2023-04-03T03:31:44.425Z,5.50
2023-04-03T03:34:14.233Z,5.50
2023-04-03T03:36:45.256Z,5.50
2023-04-03T03:39:15.887Z,5.40
2023-04-03T03:41:44.988Z,5.30
2023-04-03T03:44:16.321Z,5.30
2023-04-03T03:46:45.871Z,5.30
2023-04-03T03:49:15.227Z,4.40
2023-04-03T03:51:44.742Z,5.30
2023-04-03T03:54:19.229Z,5.30
2023-04-03T03:56:48.677Z,5.30
2023-04-03T03:59:17.817Z,5.30
2023-04-03T04:01:47.017Z,5.30
2023-04-03T04:04:16.724Z,5.30
2023-04-03T04:06:46.801Z,5.30
2023-04-03T04:09:19.852Z,5.30
2023-04-03T04:11:50.107Z,5.30
2023-04-03T04:14:19.122Z,5.30
2023-04-03T04:16:48.801Z,5.40
2023-04-03T04:19:18.690Z,4.50
2023-04-03T04:21:49.679Z,5.50
2023-04-03T04:24:22.819Z,5.50
2023-04-03T04:26:54.410Z,5.50
2023-04-03T04:29:24.004Z,5.50
2023-04-03T04:31:53.150Z,5.50
2023-04-03T04:34:22.091Z,5.50
2023-04-03T04:36:51.849Z,5.60
2023-04-03T04:39:25.402Z,5.50
2023-04-03T04:41:55.836Z,5.30
2023-04-03T04:44:26.763Z,5.50
2023-04-03T04:46:57.517Z,5.50
2023-04-03T04:49:27.102Z,5.50
2023-04-03T04:51:58.860Z,5.60
2023-04-03T04:54:29.969Z,5.60
2023-04-03T04:56:59.893Z,5.50
2023-04-03T04:59:29.445Z,5.60
2023-04-03T05:01:58.747Z,5.60
2023-04-03T05:04:27.439Z,5.60
2023-04-03T05:06:59.904Z,5.60
2023-04-03T05:09:31.822Z,5.60
2023-04-03T05:12:01.160Z,5.60
2023-04-03T05:14:30.585Z,5.60
2023-04-03T05:17:00.888Z,5.60
2023-04-03T05:19:29.946Z,5.60
2023-04-03T05:22:02.417Z,5.60
2023-04-03T05:24:36.061Z,5.60
2023-04-03T05:27:06.374Z,5.70
2023-04-03T05:29:37.351Z,5.20
2023-04-03T05:32:07.377Z,5.60
2023-04-03T05:34:37.946Z,5.60
2023-04-03T05:37:08.158Z,5.60
2023-04-03T05:39:43.489Z,5.60
2023-04-03T05:42:12.750Z,5.50
2023-04-03T05:44:42.108Z,5.50
2023-04-03T05:47:10.881Z,5.60
2023-04-03T05:49:42.119Z,5.50
2023-04-03T05:52:24.234Z,5.50
2023-04-03T05:54:55.599Z,5.50
2023-04-03T05:57:24.922Z,5.50
2023-04-03T05:59:53.890Z,5.50
2023-04-03T06:02:27.326Z,5.50
2023-04-03T06:04:57.319Z,5.50
2023-04-03T06:07:29.551Z,5.50
2023-04-03T06:10:00.456Z,5.60
2023-04-03T06:12:30.240Z,5.60
2023-04-03T06:14:59.593Z,5.70
2023-04-03T06:17:28.386Z,5.70
2023-04-03T06:19:57.125Z,5.70
2023-04-03T06:22:31.905Z,5.70
2023-04-03T06:25:02.455Z,5.80
2023-04-03T06:27:31.539Z,5.80
2023-04-03T06:30:02.108Z,5.90
2023-04-03T06:32:31.246Z,5.90
2023-04-03T06:35:02.647Z,6.00
2023-04-03T06:37:32.074Z,6.00
2023-04-03T06:40:02.813Z,6.10
2023-04-03T06:42:31.650Z,6.10
2023-04-03T06:45:01.565Z,6.10
2023-04-03T06:47:33.707Z,6.10
2023-04-03T06:50:04.544Z,6.10
2023-04-03T06:52:33.250Z,6.10
2023-04-03T06:55:03.692Z,6.20
2023-04-03T06:57:46.353Z,6.20
2023-04-03T07:00:17.502Z,6.20
2023-04-03T07:02:46.719Z,6.20
2023-04-03T07:05:15.803Z,6.20
2023-04-03T07:07:44.876Z,6.20
2023-04-03T07:10:15.221Z,6.20
2023-04-03T07:12:44.109Z,6.30
2023-04-03T07:15:14.224Z,6.20
2023-04-03T07:17:42.895Z,6.30
2023-04-03T07:20:12.073Z,6.30
2023-04-03T07:22:41.415Z,6.40
2023-04-03T07:25:11.877Z,6.40
2023-04-03T07:27:46.493Z,6.50
2023-04-03T07:30:16.693Z,6.50
2023-04-03T07:32:47.228Z,6.50
2023-04-03T07:35:18.900Z,6.30
2023-04-03T07:37:47.352Z,6.40
2023-04-03T07:40:16.039Z,6.40
2023-04-03T07:42:46.569Z,6.40
2023-04-03T07:45:15.021Z,5.30
2023-04-03T07:47:43.604Z,5.70
2023-04-03T07:50:12.888Z,6.60
2023-04-03T07:52:42.445Z,6.50
2023-04-03T07:55:11.935Z,6.50
2023-04-03T07:57:41.433Z,6.60
2023-04-03T08:00:13.222Z,6.60
2023-04-03T08:02:41.516Z,6.60
2023-04-03T08:05:12.712Z,6.70
2023-04-03T08:07:41.703Z,6.70
2023-04-03T08:10:12.139Z,6.70
2023-04-03T08:12:41.123Z,6.80
2023-04-03T08:15:14.169Z,6.70
2023-04-03T08:17:43.847Z,6.70
2023-04-03T08:20:13.771Z,5.80
2023-04-03T08:22:44.869Z,6.80
2023-04-03T08:25:13.470Z,6.80
2023-04-03T08:27:42.123Z,6.80
2023-04-03T08:30:12.835Z,6.90
2023-04-03T08:32:43.063Z,6.90
2023-04-03T08:35:12.294Z,7.00
2023-04-03T08:37:42.267Z,7.00
2023-04-03T08:40:17.057Z,7.10
2023-04-03T08:43:07.424Z,7.10
2023-04-03T08:45:46.594Z,7.30
2023-04-03T08:48:18.684Z,7.30
2023-04-03T08:50:53.032Z,7.30
2023-04-03T08:53:25.727Z,7.30
2023-04-03T08:55:55.948Z,7.50
2023-04-03T08:58:27.032Z,7.40
2023-04-03T09:01:02.096Z,6.80
2023-04-03T09:03:33.854Z,7.60
2023-04-03T09:06:04.314Z,7.70
2023-04-03T09:08:38.773Z,7.50
2023-04-03T09:11:17.135Z,7.80
2023-04-03T09:13:57.701Z,7.90
2023-04-03T09:16:50.960Z,8.00
2023-04-03T09:19:30.144Z,8.20
2023-04-03T09:22:00.929Z,8.30
2023-04-03T09:24:30.330Z,8.50
2023-04-03T09:27:02.031Z,8.60
2023-04-03T09:29:30.629Z,8.80
2023-04-03T09:32:04.038Z,8.30
2023-04-03T09:34:39.115Z,8.80
2023-04-03T09:37:08.405Z,8.80
2023-04-03T09:39:52.951Z,8.80
2023-04-03T09:42:23.900Z,8.80
2023-04-03T09:44:58.669Z,8.80
2023-04-03T09:47:34.805Z,8.70
2023-04-03T09:50:23.171Z,8.90
2023-04-03T09:52:54.613Z,9.20
2023-04-03T09:55:28.333Z,9.40
2023-04-03T09:57:58.062Z,9.50
2023-04-03T10:00:29.252Z,9.70
2023-04-03T10:03:00.606Z,9.70
2023-04-03T10:05:39.835Z,9.70
2023-04-03T10:08:19.964Z,9.70
2023-04-03T10:10:50.885Z,9.70
2023-04-03T10:13:22.448Z,9.80
2023-04-03T10:15:54.324Z,9.90
2023-04-03T10:18:33.810Z,10.10
2023-04-03T10:21:17.554Z,10.20
2023-04-03T10:24:00.518Z,10.30
2023-04-03T10:26:41.776Z,10.20
2023-04-03T10:29:24.006Z,10.00
2023-04-03T10:32:05.383Z,10.40
2023-04-03T10:34:46.751Z,10.50
2023-04-03T10:37:37.879Z,10.60
2023-04-03T10:40:18.104Z,10.10
2023-04-03T10:42:52.524Z,10.50
2023-04-03T10:45:27.695Z,10.50
2023-04-03T10:48:05.960Z,10.50
2023-04-03T10:50:52.720Z,10.30
2023-04-03T10:53:34.241Z,10.40
2023-04-03T10:56:09.870Z,10.50
2023-04-03T10:58:45.442Z,10.60
2023-04-03T11:01:22.826Z,10.20
2023-04-03T11:04:00.470Z,10.30
2023-04-03T11:06:43.824Z,10.10
2023-04-03T11:09:22.623Z,10.30
2023-04-03T11:11:54.433Z,10.30
2023-04-03T11:14:29.602Z,10.10
2023-04-03T11:17:26.157Z,10.30
2023-04-03T11:20:04.679Z,10.40
2023-04-03T11:22:38.992Z,10.70
2023-04-03T11:25:21.133Z,11.00
2023-04-03T11:27:54.180Z,10.80
2023-04-03T11:30:26.042Z,11.10
2023-04-03T11:33:14.444Z,11.30
2023-04-03T11:35:49.229Z,11.20
2023-04-03T11:38:25.153Z,11.70
2023-04-03T11:40:54.045Z,12.10
2023-04-03T11:43:28.053Z,12.30
2023-04-03T11:46:01.090Z,12.20
2023-04-03T11:48:50.374Z,12.30
2023-04-03T11:51:54.580Z,12.30
2023-04-03T11:54:52.715Z,12.20
2023-04-03T11:57:58.722Z,12.30
2023-04-03T12:01:04.037Z,12.00
2023-04-03T12:03:54.733Z,11.90
2023-04-03T12:07:16.079Z,11.70
2023-04-03T12:10:30.788Z,11.70
2023-04-03T12:13:05.090Z,11.50
2023-04-03T12:16:01.062Z,11.30
2023-04-03T12:18:46.619Z,11.30
2023-04-03T12:21:20.740Z,11.30
2023-04-03T12:24:24.857Z,11.20
2023-04-03T12:27:04.384Z,11.40
2023-04-03T12:29:52.738Z,11.40
2023-04-03T12:32:37.107Z,11.50
2023-04-03T12:35:21.662Z,11.50
2023-04-03T12:38:17.456Z,11.40
2023-04-03T12:40:57.876Z,11.40
2023-04-03T12:43:41.478Z,11.50
2023-04-03T12:46:20.653Z,11.30
2023-04-03T12:48:54.818Z,11.20
2023-04-03T12:51:35.478Z,11.40
2023-04-03T12:54:15.389Z,11.40
2023-04-03T12:56:49.243Z,11.50
2023-04-03T12:59:23.042Z,11.40
2023-04-03T13:02:00.688Z,11.50
2023-04-03T13:04:30.851Z,11.50
2023-04-03T13:07:00.573Z,11.50
2023-04-03T13:09:31.329Z,11.60
2023-04-03T13:12:02.640Z,11.60
2023-04-03T13:14:32.456Z,11.50
2023-04-03T13:17:09.245Z,11.20
2023-04-03T13:19:38.220Z,11.10
2023-04-03T13:22:11.501Z,11.00
2023-04-03T13:24:41.924Z,11.00
2023-04-03T13:27:15.035Z,10.90
2023-04-03T13:29:44.939Z,10.90
2023-04-03T13:32:22.639Z,10.80
2023-04-03T13:34:51.936Z,10.80
2023-04-03T13:37:26.666Z,10.50
2023-04-03T13:40:06.227Z,10.30
2023-04-03T13:42:38.352Z,10.10
2023-04-03T13:45:30.775Z,10.00
2023-04-03T13:51:02.278Z,9.10
2023-04-03T13:53:35.467Z,10.20
2023-04-03T13:56:22.416Z,10.10
2023-04-03T13:59:01.208Z,9.70
2023-04-03T14:01:41.241Z,9.50
2023-04-03T14:04:18.614Z,9.50
2023-04-03T14:06:48.868Z,9.30
2023-04-03T14:09:23.024Z,9.30
2023-04-03T14:11:54.836Z,9.10
2023-04-03T14:14:36.125Z,8.90
2023-04-03T14:17:13.434Z,8.90
2023-04-03T14:19:56.665Z,8.90
2023-04-03T14:22:27.352Z,8.90
2023-04-03T14:24:56.329Z,8.80
2023-04-03T14:27:29.676Z,8.70
2023-04-03T14:30:00.279Z,8.70
2023-04-03T14:32:31.431Z,8.70
2023-04-03T14:35:02.190Z,8.70
2023-04-03T14:37:32.920Z,8.60
2023-04-03T14:40:04.867Z,8.50
2023-04-03T14:42:36.178Z,8.50
2023-04-03T14:45:07.953Z,8.50
2023-04-03T14:47:40.776Z,8.50
2023-04-03T14:50:18.102Z,8.50
2023-04-03T14:52:47.546Z,8.40
2023-04-03T14:55:18.252Z,7.50
2023-04-03T14:57:47.268Z,8.50
2023-04-03T15:00:21.815Z,8.40
2023-04-03T15:02:55.966Z,8.50
2023-04-03T15:05:26.656Z,8.50
2023-04-03T15:07:57.633Z,8.50
2023-04-03T15:10:31.218Z,8.50
2023-04-03T15:13:01.600Z,8.50
2023-04-03T15:15:32.532Z,8.50
2023-04-03T15:18:03.797Z,8.50
2023-04-03T15:20:36.819Z,8.40
2023-04-03T15:23:06.492Z,8.40
2023-04-03T15:25:35.676Z,8.30
2023-04-03T15:28:06.798Z,8.30
2023-04-03T15:30:44.125Z,8.20
2023-04-03T15:33:16.942Z,8.20
2023-04-03T15:35:47.233Z,8.10
2023-04-03T15:38:16.333Z,8.00
2023-04-03T15:40:47.220Z,8.00
2023-04-03T15:43:18.264Z,7.90
2023-04-03T15:45:50.562Z,7.90
2023-04-03T15:48:19.423Z,7.90
2023-04-03T15:50:49.944Z,7.70
2023-04-03T15:53:21.011Z,7.60
2023-04-03T15:55:50.395Z,7.50
2023-04-03T15:58:19.675Z,7.40
2023-04-03T16:00:48.874Z,7.40
2023-04-03T16:03:20.640Z,7.30
2023-04-03T16:05:52.206Z,7.20
2023-04-03T16:08:21.297Z,7.20
2023-04-03T16:10:49.884Z,7.00
2023-04-03T16:13:25.709Z,7.00
2023-04-03T16:15:58.044Z,7.10
2023-04-03T16:18:26.902Z,6.90
2023-04-03T16:20:57.724Z,6.80
2023-04-03T16:23:26.825Z,6.80
2023-04-03T16:25:55.447Z,6.70
2023-04-03T16:28:24.101Z,6.70
2023-04-03T16:30:53.088Z,6.60
2023-04-03T16:33:23.085Z,6.60
2023-04-03T16:35:53.937Z,6.60
2023-04-03T16:38:25.481Z,6.50
2023-04-03T16:41:00.827Z,6.50
2023-04-03T16:43:29.720Z,6.50
2023-04-03T16:45:59.533Z,6.40
2023-04-03T16:48:28.317Z,6.40
2023-04-03T16:50:57.622Z,5.70
2023-04-03T16:53:29.006Z,6.30
2023-04-03T16:56:01.027Z,6.00
2023-04-03T16:58:29.895Z,6.10
2023-04-03T17:00:59.008Z,6.30
2023-04-03T17:03:29.260Z,6.20
2023-04-03T17:06:03.014Z,6.20
2023-04-03T17:08:38.388Z,6.10
2023-04-03T17:11:07.526Z,6.10
2023-04-03T17:13:37.718Z,6.10
2023-04-03T17:16:10.085Z,6.20
2023-04-03T17:18:39.203Z,6.00
2023-04-03T17:21:08.957Z,6.00
2023-04-03T17:23:40.834Z,6.00
2023-04-03T17:26:09.836Z,6.00
2023-04-03T17:28:40.824Z,5.90
2023-04-03T17:31:11.375Z,6.00
2023-04-03T17:33:40.280Z,5.90
2023-04-03T17:36:10.992Z,5.90
2023-04-03T17:38:41.656Z,5.80
2023-04-03T17:41:11.642Z,5.80
2023-04-03T17:43:40.283Z,5.80
2023-04-03T17:46:10.812Z,5.80
2023-04-03T17:48:45.306Z,5.80
2023-04-03T17:51:15.618Z,5.70
2023-04-03T17:53:46.433Z,5.70
2023-04-03T17:56:19.852Z,5.80
2023-04-03T17:58:50.113Z,5.80
2023-04-03T18:01:21.557Z,5.70
2023-04-03T18:03:58.757Z,5.70
2023-04-03T18:06:30.167Z,5.70
2023-04-03T18:09:06.207Z,5.70
2023-04-03T18:11:35.195Z,5.70
2023-04-03T18:14:05.928Z,5.70
2023-04-03T18:16:34.846Z,5.00
2023-04-03T18:21:36.927Z,5.70
2023-04-03T18:24:08.660Z,5.60
2023-04-03T18:26:38.178Z,5.60
2023-04-03T18:29:12.195Z,5.40
2023-04-03T18:31:47.232Z,5.60
2023-04-03T18:34:16.229Z,5.60
2023-04-03T18:36:48.384Z,5.50
2023-04-03T18:39:19.254Z,5.50
2023-04-03T18:41:49.644Z,5.40
2023-04-03T18:44:25.004Z,5.40
2023-04-03T18:46:54.197Z,5.40
2023-04-03T18:49:22.951Z,5.40
2023-04-03T18:51:52.087Z,5.30
2023-04-03T18:54:24.181Z,5.30
2023-04-03T18:56:55.763Z,5.30
2023-04-03T18:59:25.508Z,5.20
2023-04-03T19:01:54.991Z,4.10
2023-04-03T19:04:29.003Z,5.10
2023-04-03T19:06:58.091Z,5.00
2023-04-03T19:09:30.495Z,5.10
2023-04-03T19:12:03.339Z,5.00
2023-04-03T19:14:32.145Z,5.00
2023-04-03T19:17:02.961Z,5.00
2023-04-03T19:19:32.171Z,5.00
2023-04-03T19:22:01.736Z,5.00
2023-04-03T19:24:32.600Z,4.90
2023-04-03T19:27:01.845Z,4.90
2023-04-03T19:29:30.671Z,4.90
2023-04-03T19:32:05.436Z,4.80
2023-04-03T19:34:34.849Z,4.70
2023-04-03T19:37:03.787Z,4.70
2023-04-03T19:39:39.785Z,4.70
2023-04-03T19:42:13.244Z,4.70
2023-04-03T19:44:44.483Z,4.70
2023-04-03T19:47:16.692Z,4.40
2023-04-03T19:49:46.592Z,4.60
2023-04-03T19:52:20.115Z,4.60
2023-04-03T19:54:51.765Z,4.60
2023-04-03T19:57:22.172Z,4.60
2023-04-03T19:59:52.198Z,4.60
2023-04-03T20:02:22.296Z,3.60
2023-04-03T20:04:51.417Z,4.60
2023-04-03T20:07:22.138Z,4.60
2023-04-03T20:09:53.086Z,4.50
2023-04-03T20:12:22.242Z,4.50
2023-04-03T20:14:52.007Z,4.60
2023-04-03T20:17:21.180Z,4.50
2023-04-03T20:19:51.826Z,4.50
2023-04-03T20:22:20.933Z,4.50
2023-04-03T20:24:50.448Z,4.50
2023-04-03T20:27:21.556Z,4.40
2023-04-03T20:29:53.097Z,4.40
2023-04-03T20:32:24.319Z,4.30
2023-04-03T20:35:03.035Z,4.30
2023-04-03T20:37:33.367Z,3.90
2023-04-03T20:40:02.497Z,4.30
2023-04-03T20:42:34.560Z,3.50
2023-04-03T20:45:08.489Z,4.30
2023-04-03T20:47:37.487Z,4.70
2023-04-03T20:50:07.367Z,4.30
2023-04-03T20:52:37.368Z,4.30
2023-04-03T20:55:07.101Z,4.30
2023-04-03T20:57:39.043Z,4.30
2023-04-03T21:00:09.315Z,4.30
2023-04-03T21:02:38.769Z,4.20
2023-04-03T21:05:10.240Z,3.70
2023-04-03T21:08:17.192Z,4.20
2023-04-03T21:11:24.200Z,4.20
2023-04-03T21:14:32.282Z,4.10
2023-04-03T21:17:02.600Z,4.10
2023-04-03T21:19:33.878Z,4.10
2023-04-03T21:22:04.410Z,4.10
2023-04-03T21:24:33.494Z,4.00
2023-04-03T21:27:05.172Z,4.00
2023-04-03T21:29:35.682Z,4.00
2023-04-03T21:32:04.668Z,3.00
2023-04-03T21:34:35.689Z,4.00
2023-04-03T21:37:06.668Z,3.90
2023-04-03T21:39:36.974Z,3.90
2023-04-03T21:42:08.937Z,3.90
2023-04-03T21:44:37.733Z,3.80
2023-04-03T21:47:07.243Z,3.80
2023-04-03T21:49:37.765Z,3.80
2023-04-03T21:52:06.487Z,3.80
2023-04-03T21:54:36.256Z,3.70
2023-04-03T21:57:05.975Z,3.80
2023-04-03T21:59:36.080Z,3.70
2023-04-03T22:02:05.753Z,3.70
2023-04-03T22:04:34.574Z,3.70
2023-04-03T22:07:04.803Z,3.70
2023-04-03T22:09:33.516Z,3.60
2023-04-03T22:12:03.739Z,3.50
2023-04-03T22:14:32.581Z,3.60
2023-04-03T22:17:01.064Z,3.60
2023-04-03T22:19:29.478Z,3.60
2023-04-03T22:21:57.994Z,3.50
2023-04-03T22:24:27.957Z,3.60
2023-04-03T22:26:56.534Z,3.50
2023-04-03T22:29:25.109Z,3.50
2023-04-03T22:31:54.137Z,3.40
2023-04-03T22:34:23.431Z,3.40
2023-04-03T22:36:53.801Z,3.40
2023-04-03T22:39:22.418Z,3.40
2023-04-03T22:41:52.709Z,3.40
2023-04-03T22:44:21.660Z,3.30
2023-04-03T22:46:50.701Z,3.40
2023-04-03T22:49:19.587Z,3.40
2023-04-03T22:51:48.037Z,3.30
2023-04-03T22:54:16.683Z,3.30
2023-04-03T22:56:45.211Z,3.30
2023-04-03T22:59:15.106Z,3.30
2023-04-03T23:01:43.658Z,3.30
2023-04-03T23:04:12.486Z,3.30
2023-04-03T23:06:41.349Z,3.30
2023-04-03T23:09:09.842Z,3.20
2023-04-03T23:11:38.339Z,3.30
2023-04-03T23:14:06.967Z,3.30
2023-04-03T23:16:37.401Z,3.20
2023-04-03T23:19:07.444Z,3.20
2023-04-03T23:21:36.564Z,3.80
2023-04-03T23:24:05.317Z,3.30
2023-04-03T23:26:33.688Z,3.30
2023-04-03T23:29:02.270Z,3.20
2023-04-03T23:31:30.843Z,3.20
2023-04-03T23:34:00.709Z,3.20
2023-04-03T23:36:29.300Z,3.20
2023-04-03T23:38:58.040Z,3.20
2023-04-03T23:41:26.554Z,3.20
2023-04-03T23:43:55.246Z,3.10
2023-04-03T23:46:23.742Z,2.50
2023-04-03T23:48:52.602Z,3.10
2023-04-03T23:51:22.516Z,3.00
2023-04-03T23:53:51.361Z,3.00
2023-04-03T23:56:19.919Z,2.60
2023-04-03T23:58:48.574Z,2.90
